sensor_id;sensor_type;location;lat;lon;timestamp;pressure;altitude;pressure_sealevel;temperature;humidity
76551;BME280;65393;53.160;18.170;2023-03-01T00:01:13;102834.36;;;-2.21;70.71
76551;BME280;65393;53.160;18.170;2023-03-01T00:03:41;102830.46;;;-2.22;70.70
76551;BME280;65393;53.160;18.170;2023-03-01T00:06:08;102831.59;;;-2.24;70.99
76551;BME280;65393;53.160;18.170;2023-03-01T00:08:36;102835.29;;;-2.27;71.50
76551;BME280;65393;53.160;18.170;2023-03-01T00:11:07;102838.88;;;-2.32;71.26
76551;BME280;65393;53.160;18.170;2023-03-01T00:13:34;102837.00;;;-2.35;71.43
76551;BME280;65393;53.160;18.170;2023-03-01T00:16:07;102837.67;;;-2.39;71.47
76551;BME280;65393;53.160;18.170;2023-03-01T00:18:34;102834.61;;;-2.41;72.23
76551;BME280;65393;53.160;18.170;2023-03-01T00:21:01;102824.70;;;-2.41;72.19
76551;BME280;65393;53.160;18.170;2023-03-01T00:23:28;102821.80;;;-2.40;71.91
76551;BME280;65393;53.160;18.170;2023-03-01T00:25:55;102816.80;;;-2.39;71.72
76551;BME280;65393;53.160;18.170;2023-03-01T00:28:22;102816.49;;;-2.38;71.91
76551;BME280;65393;53.160;18.170;2023-03-01T00:30:49;102820.88;;;-2.37;71.76
76551;BME280;65393;53.160;18.170;2023-03-01T00:33:15;102821.66;;;-2.36;71.83
76551;BME280;65393;53.160;18.170;2023-03-01T00:35:42;102823.39;;;-2.36;71.64
76551;BME280;65393;53.160;18.170;2023-03-01T00:38:09;102823.44;;;-2.35;71.59
76551;BME280;65393;53.160;18.170;2023-03-01T00:40:36;102820.73;;;-2.33;71.67
76551;BME280;65393;53.160;18.170;2023-03-01T00:43:03;102818.20;;;-2.31;72.18
76551;BME280;65393;53.160;18.170;2023-03-01T00:45:30;102812.34;;;-2.30;72.15
76551;BME280;65393;53.160;18.170;2023-03-01T00:47:59;102806.45;;;-2.30;72.01
76551;BME280;65393;53.160;18.170;2023-03-01T00:50:26;102804.96;;;-2.32;71.92
76551;BME280;65393;53.160;18.170;2023-03-01T00:52:54;102803.56;;;-2.32;71.94
76551;BME280;65393;53.160;18.170;2023-03-01T00:55:22;102798.41;;;-2.31;72.01
76551;BME280;65393;53.160;18.170;2023-03-01T00:57:50;102790.33;;;-2.29;71.65
76551;BME280;65393;53.160;18.170;2023-03-01T01:00:18;102789.27;;;-2.29;71.63
76551;BME280;65393;53.160;18.170;2023-03-01T01:02:48;102787.52;;;-2.29;71.78
76551;BME280;65393;53.160;18.170;2023-03-01T01:05:15;102787.96;;;-2.28;71.99
76551;BME280;65393;53.160;18.170;2023-03-01T01:07:48;102782.20;;;-2.24;71.83
76551;BME280;65393;53.160;18.170;2023-03-01T01:10:15;102778.76;;;-2.23;71.89
76551;BME280;65393;53.160;18.170;2023-03-01T01:12:45;102777.02;;;-2.23;71.72
76551;BME280;65393;53.160;18.170;2023-03-01T01:15:12;102778.13;;;-2.21;71.80
76551;BME280;65393;53.160;18.170;2023-03-01T01:17:40;102772.42;;;-2.21;71.57
76551;BME280;65393;53.160;18.170;2023-03-01T01:20:08;102763.13;;;-2.23;71.92
76551;BME280;65393;53.160;18.170;2023-03-01T01:22:35;102766.20;;;-2.24;71.48
76551;BME280;65393;53.160;18.170;2023-03-01T01:25:02;102762.10;;;-2.26;71.78
76551;BME280;65393;53.160;18.170;2023-03-01T01:27:29;102754.51;;;-2.28;71.55
76551;BME280;65393;53.160;18.170;2023-03-01T01:29:56;102748.58;;;-2.32;71.73
76551;BME280;65393;53.160;18.170;2023-03-01T01:32:23;102750.38;;;-2.35;72.00
76551;BME280;65393;53.160;18.170;2023-03-01T01:34:50;102752.30;;;-2.39;72.09
76551;BME280;65393;53.160;18.170;2023-03-01T01:37:17;102751.77;;;-2.42;72.13
76551;BME280;65393;53.160;18.170;2023-03-01T01:39:43;102744.11;;;-2.46;72.25
76551;BME280;65393;53.160;18.170;2023-03-01T01:42:18;102741.23;;;-2.52;72.42
76551;BME280;65393;53.160;18.170;2023-03-01T01:44:46;102748.17;;;-2.56;72.57
76551;BME280;65393;53.160;18.170;2023-03-01T01:47:18;102754.83;;;-2.58;72.86
76551;BME280;65393;53.160;18.170;2023-03-01T01:49:53;102750.41;;;-2.60;72.63
76551;BME280;65393;53.160;18.170;2023-03-01T01:52:26;102740.05;;;-2.62;72.77
76551;BME280;65393;53.160;18.170;2023-03-01T01:54:57;102735.06;;;-2.65;72.71
76551;BME280;65393;53.160;18.170;2023-03-01T01:57:31;102727.38;;;-2.66;72.68
76551;BME280;65393;53.160;18.170;2023-03-01T02:00:05;102725.42;;;-2.67;72.51
76551;BME280;65393;53.160;18.170;2023-03-01T02:02:40;102730.66;;;-2.66;72.53
76551;BME280;65393;53.160;18.170;2023-03-01T02:05:16;102738.31;;;-2.66;72.39
76551;BME280;65393;53.160;18.170;2023-03-01T02:07:48;102736.10;;;-2.64;72.71
76551;BME280;65393;53.160;18.170;2023-03-01T02:10:21;102734.57;;;-2.64;72.39
76551;BME280;65393;53.160;18.170;2023-03-01T02:12:48;102736.42;;;-2.61;72.53
76551;BME280;65393;53.160;18.170;2023-03-01T02:15:15;102730.60;;;-2.60;72.44
76551;BME280;65393;53.160;18.170;2023-03-01T02:17:43;102732.63;;;-2.57;72.34
76551;BME280;65393;53.160;18.170;2023-03-01T02:23:15;102731.20;;;-2.55;72.51
76551;BME280;65393;53.160;18.170;2023-03-01T02:30:48;102729.99;;;-2.47;72.41
76551;BME280;65393;53.160;18.170;2023-03-01T02:33:36;102719.81;;;-2.45;72.37
76551;BME280;65393;53.160;18.170;2023-03-01T02:36:06;102710.61;;;-2.45;72.31
76551;BME280;65393;53.160;18.170;2023-03-01T02:38:33;102709.22;;;-2.45;72.58
76551;BME280;65393;53.160;18.170;2023-03-01T02:41:02;102707.08;;;-2.46;72.29
76551;BME280;65393;53.160;18.170;2023-03-01T02:43:32;102699.41;;;-2.47;72.23
76551;BME280;65393;53.160;18.170;2023-03-01T02:46:04;102701.74;;;-2.49;72.57
76551;BME280;65393;53.160;18.170;2023-03-01T02:48:47;102704.39;;;-2.51;72.62
76551;BME280;65393;53.160;18.170;2023-03-01T02:56:28;102691.55;;;-2.58;72.60
76551;BME280;65393;53.160;18.170;2023-03-01T02:58:56;102692.60;;;-2.62;72.68
76551;BME280;65393;53.160;18.170;2023-03-01T03:01:27;102693.02;;;-2.64;72.61
76551;BME280;65393;53.160;18.170;2023-03-01T03:04:10;102690.41;;;-2.68;72.99
76551;BME280;65393;53.160;18.170;2023-03-01T03:06:37;102698.38;;;-2.72;72.93
76551;BME280;65393;53.160;18.170;2023-03-01T03:09:05;102696.85;;;-2.75;72.64
76551;BME280;65393;53.160;18.170;2023-03-01T03:11:31;102701.36;;;-2.79;72.68
76551;BME280;65393;53.160;18.170;2023-03-01T03:13:59;102704.14;;;-2.82;72.78
76551;BME280;65393;53.160;18.170;2023-03-01T03:16:26;102697.95;;;-2.84;73.09
76551;BME280;65393;53.160;18.170;2023-03-01T03:18:53;102696.15;;;-2.86;73.31
76551;BME280;65393;53.160;18.170;2023-03-01T03:21:19;102691.89;;;-2.88;72.93
76551;BME280;65393;53.160;18.170;2023-03-01T03:23:46;102686.23;;;-2.89;72.91
76551;BME280;65393;53.160;18.170;2023-03-01T03:26:13;102686.17;;;-2.91;73.04
76551;BME280;65393;53.160;18.170;2023-03-01T03:28:41;102689.44;;;-2.91;73.01
76551;BME280;65393;53.160;18.170;2023-03-01T03:31:08;102678.29;;;-2.92;73.15
76551;BME280;65393;53.160;18.170;2023-03-01T03:33:35;102670.92;;;-2.93;73.31
76551;BME280;65393;53.160;18.170;2023-03-01T03:36:02;102663.40;;;-2.94;73.24
76551;BME280;65393;53.160;18.170;2023-03-01T03:38:29;102662.85;;;-2.95;73.36
76551;BME280;65393;53.160;18.170;2023-03-01T03:41:04;102658.70;;;-2.95;73.09
76551;BME280;65393;53.160;18.170;2023-03-01T03:43:33;102653.83;;;-2.95;73.20
76551;BME280;65393;53.160;18.170;2023-03-01T03:46:00;102653.84;;;-2.95;73.39
76551;BME280;65393;53.160;18.170;2023-03-01T03:48:27;102654.14;;;-2.96;73.44
76551;BME280;65393;53.160;18.170;2023-03-01T03:50:56;102661.48;;;-2.99;73.48
76551;BME280;65393;53.160;18.170;2023-03-01T03:53:25;102667.61;;;-3.02;73.54
76551;BME280;65393;53.160;18.170;2023-03-01T03:55:52;102671.46;;;-3.04;73.48
76551;BME280;65393;53.160;18.170;2023-03-01T03:58:21;102673.31;;;-3.05;73.54
76551;BME280;65393;53.160;18.170;2023-03-01T04:00:51;102673.02;;;-3.08;73.81
76551;BME280;65393;53.160;18.170;2023-03-01T04:03:19;102676.77;;;-3.09;73.45
76551;BME280;65393;53.160;18.170;2023-03-01T04:05:47;102679.31;;;-3.11;73.88
76551;BME280;65393;53.160;18.170;2023-03-01T04:08:17;102674.85;;;-3.13;73.80
76551;BME280;65393;53.160;18.170;2023-03-01T04:10:48;102680.01;;;-3.14;74.15
76551;BME280;65393;53.160;18.170;2023-03-01T04:13:20;102684.15;;;-3.15;73.95
76551;BME280;65393;53.160;18.170;2023-03-01T04:15:52;102680.01;;;-3.14;74.08
76551;BME280;65393;53.160;18.170;2023-03-01T04:18:22;102674.70;;;-3.13;74.09
76551;BME280;65393;53.160;18.170;2023-03-01T04:20:49;102676.33;;;-3.12;73.86
76551;BME280;65393;53.160;18.170;2023-03-01T04:23:19;102677.09;;;-3.10;73.87
76551;BME280;65393;53.160;18.170;2023-03-01T04:28:15;102667.11;;;-3.08;74.51
76551;BME280;65393;53.160;18.170;2023-03-01T04:30:43;102661.79;;;-3.07;74.43
76551;BME280;65393;53.160;18.170;2023-03-01T04:33:10;102659.92;;;-3.06;74.29
76551;BME280;65393;53.160;18.170;2023-03-01T04:35:38;102657.17;;;-3.09;74.67
76551;BME280;65393;53.160;18.170;2023-03-01T04:38:05;102654.61;;;-3.08;74.27
76551;BME280;65393;53.160;18.170;2023-03-01T04:40:33;102657.23;;;-3.08;74.70
76551;BME280;65393;53.160;18.170;2023-03-01T04:43:01;102657.48;;;-3.07;74.62
76551;BME280;65393;53.160;18.170;2023-03-01T04:45:28;102651.44;;;-3.05;74.48
76551;BME280;65393;53.160;18.170;2023-03-01T04:47:55;102652.87;;;-3.04;74.46
76551;BME280;65393;53.160;18.170;2023-03-01T04:50:24;102649.62;;;-3.03;74.46
76551;BME280;65393;53.160;18.170;2023-03-01T04:52:52;102645.46;;;-3.03;74.66
76551;BME280;65393;53.160;18.170;2023-03-01T04:55:19;102640.51;;;-3.02;74.47
76551;BME280;65393;53.160;18.170;2023-03-01T04:57:45;102629.57;;;-3.02;75.16
76551;BME280;65393;53.160;18.170;2023-03-01T05:00:13;102632.00;;;-3.01;74.77
76551;BME280;65393;53.160;18.170;2023-03-01T05:02:51;102631.89;;;-3.00;74.73
76551;BME280;65393;53.160;18.170;2023-03-01T05:05:28;102635.02;;;-3.00;74.85
76551;BME280;65393;53.160;18.170;2023-03-01T05:07:57;102643.98;;;-3.02;74.68
76551;BME280;65393;53.160;18.170;2023-03-01T05:10:25;102644.96;;;-3.03;74.95
76551;BME280;65393;53.160;18.170;2023-03-01T05:12:53;102647.22;;;-3.03;74.78
76551;BME280;65393;53.160;18.170;2023-03-01T05:15:20;102646.05;;;-3.02;74.67
76551;BME280;65393;53.160;18.170;2023-03-01T05:17:49;102650.23;;;-3.02;74.74
76551;BME280;65393;53.160;18.170;2023-03-01T05:20:16;102648.11;;;-3.03;74.97
76551;BME280;65393;53.160;18.170;2023-03-01T05:22:42;102645.27;;;-3.04;74.96
76551;BME280;65393;53.160;18.170;2023-03-01T05:25:09;102647.80;;;-3.05;75.15
76551;BME280;65393;53.160;18.170;2023-03-01T05:27:36;102644.09;;;-3.06;74.97
76551;BME280;65393;53.160;18.170;2023-03-01T05:30:03;102643.31;;;-3.08;75.34
76551;BME280;65393;53.160;18.170;2023-03-01T05:32:48;102643.38;;;-3.10;75.71
76551;BME280;65393;53.160;18.170;2023-03-01T05:35:17;102643.63;;;-3.12;75.25
76551;BME280;65393;53.160;18.170;2023-03-01T05:37:46;102643.42;;;-3.13;75.21
76551;BME280;65393;53.160;18.170;2023-03-01T05:40:19;102644.91;;;-3.14;75.16
76551;BME280;65393;53.160;18.170;2023-03-01T05:42:56;102642.29;;;-3.15;75.14
76551;BME280;65393;53.160;18.170;2023-03-01T05:45:24;102645.24;;;-3.15;75.12
76551;BME280;65393;53.160;18.170;2023-03-01T05:47:53;102646.52;;;-3.14;75.24
76551;BME280;65393;53.160;18.170;2023-03-01T05:50:23;102641.52;;;-3.13;75.23
76551;BME280;65393;53.160;18.170;2023-03-01T05:53:00;102645.23;;;-3.11;75.46
76551;BME280;65393;53.160;18.170;2023-03-01T05:55:29;102645.80;;;-3.11;75.43
76551;BME280;65393;53.160;18.170;2023-03-01T05:58:03;102647.48;;;-3.08;75.36
76551;BME280;65393;53.160;18.170;2023-03-01T06:00:31;102653.02;;;-3.05;75.32
76551;BME280;65393;53.160;18.170;2023-03-01T06:02:59;102649.83;;;-3.03;75.47
76551;BME280;65393;53.160;18.170;2023-03-01T06:05:26;102644.73;;;-3.00;75.29
76551;BME280;65393;53.160;18.170;2023-03-01T06:07:53;102644.55;;;-2.97;75.28
76551;BME280;65393;53.160;18.170;2023-03-01T06:10:22;102642.45;;;-2.93;75.11
76551;BME280;65393;53.160;18.170;2023-03-01T06:12:49;102646.67;;;-2.88;75.24
76551;BME280;65393;53.160;18.170;2023-03-01T06:15:16;102649.55;;;-2.83;75.25
76551;BME280;65393;53.160;18.170;2023-03-01T06:17:45;102652.58;;;-2.78;74.97
76551;BME280;65393;53.160;18.170;2023-03-01T06:20:18;102651.09;;;-2.72;74.98
76551;BME280;65393;53.160;18.170;2023-03-01T06:22:45;102655.78;;;-2.65;75.02
76551;BME280;65393;53.160;18.170;2023-03-01T06:25:15;102657.64;;;-2.59;74.46
76551;BME280;65393;53.160;18.170;2023-03-01T06:27:42;102655.16;;;-2.52;74.81
76551;BME280;65393;53.160;18.170;2023-03-01T06:30:11;102657.36;;;-2.46;74.72
76551;BME280;65393;53.160;18.170;2023-03-01T06:32:38;102652.45;;;-2.39;74.50
76551;BME280;65393;53.160;18.170;2023-03-01T06:35:13;102653.95;;;-2.33;74.58
76551;BME280;65393;53.160;18.170;2023-03-01T06:37:40;102651.79;;;-2.27;74.41
76551;BME280;65393;53.160;18.170;2023-03-01T06:40:07;102652.48;;;-2.23;74.38
76551;BME280;65393;53.160;18.170;2023-03-01T06:42:35;102657.47;;;-2.16;74.66
76551;BME280;65393;53.160;18.170;2023-03-01T06:45:03;102658.54;;;-2.12;74.35
76551;BME280;65393;53.160;18.170;2023-03-01T06:47:31;102658.58;;;-2.07;74.24
76551;BME280;65393;53.160;18.170;2023-03-01T06:50:00;102658.83;;;-2.02;74.35
76551;BME280;65393;53.160;18.170;2023-03-01T06:52:27;102656.46;;;-1.96;74.01
76551;BME280;65393;53.160;18.170;2023-03-01T06:54:54;102646.15;;;-1.93;74.10
76551;BME280;65393;53.160;18.170;2023-03-01T06:57:21;102645.23;;;-1.90;73.92
76551;BME280;65393;53.160;18.170;2023-03-01T06:59:47;102645.20;;;-1.87;73.98
76551;BME280;65393;53.160;18.170;2023-03-01T07:02:14;102647.21;;;-1.85;73.63
76551;BME280;65393;53.160;18.170;2023-03-01T07:04:42;102643.00;;;-1.81;73.75
76551;BME280;65393;53.160;18.170;2023-03-01T07:07:09;102640.46;;;-1.76;73.96
76551;BME280;65393;53.160;18.170;2023-03-01T07:09:36;102641.05;;;-1.70;73.99
76551;BME280;65393;53.160;18.170;2023-03-01T07:12:04;102639.77;;;-1.63;73.77
76551;BME280;65393;53.160;18.170;2023-03-01T07:14:30;102639.30;;;-1.58;73.84
76551;BME280;65393;53.160;18.170;2023-03-01T07:16:57;102634.10;;;-1.54;73.23
76551;BME280;65393;53.160;18.170;2023-03-01T07:19:24;102628.02;;;-1.49;73.29
76551;BME280;65393;53.160;18.170;2023-03-01T07:21:51;102621.56;;;-1.45;73.27
76551;BME280;65393;53.160;18.170;2023-03-01T07:24:17;102621.11;;;-1.39;72.97
76551;BME280;65393;53.160;18.170;2023-03-01T07:26:48;102620.85;;;-1.32;73.02
76551;BME280;65393;53.160;18.170;2023-03-01T07:29:15;102613.80;;;-1.26;73.00
76551;BME280;65393;53.160;18.170;2023-03-01T07:31:43;102615.44;;;-1.20;73.38
76551;BME280;65393;53.160;18.170;2023-03-01T07:34:09;102608.70;;;-1.15;72.86
76551;BME280;65393;53.160;18.170;2023-03-01T07:36:37;102607.15;;;-1.09;73.03
76551;BME280;65393;53.160;18.170;2023-03-01T07:39:06;102608.98;;;-1.03;73.13
76551;BME280;65393;53.160;18.170;2023-03-01T07:41:33;102611.21;;;-0.95;73.00
76551;BME280;65393;53.160;18.170;2023-03-01T07:43:59;102607.85;;;-0.88;72.86
76551;BME280;65393;53.160;18.170;2023-03-01T07:46:26;102608.27;;;-0.76;73.05
76551;BME280;65393;53.160;18.170;2023-03-01T07:48:53;102613.60;;;-0.64;73.06
76551;BME280;65393;53.160;18.170;2023-03-01T07:51:20;102609.91;;;-0.51;73.37
76551;BME280;65393;53.160;18.170;2023-03-01T07:53:47;102607.26;;;-0.38;72.88
76551;BME280;65393;53.160;18.170;2023-03-01T07:56:15;102604.36;;;-0.26;72.91
76551;BME280;65393;53.160;18.170;2023-03-01T07:58:44;102602.52;;;-0.15;72.35
76551;BME280;65393;53.160;18.170;2023-03-01T08:01:14;102604.48;;;-0.04;72.83
76551;BME280;65393;53.160;18.170;2023-03-01T08:03:42;102602.36;;;0.11;72.38
76551;BME280;65393;53.160;18.170;2023-03-01T08:06:11;102594.36;;;0.21;72.20
76551;BME280;65393;53.160;18.170;2023-03-01T08:08:39;102591.35;;;0.30;72.21
76551;BME280;65393;53.160;18.170;2023-03-01T08:11:07;102594.41;;;0.39;72.31
76551;BME280;65393;53.160;18.170;2023-03-01T08:13:34;102598.55;;;0.47;71.90
76551;BME280;65393;53.160;18.170;2023-03-01T08:16:06;102605.59;;;0.54;72.22
76551;BME280;65393;53.160;18.170;2023-03-01T08:18:34;102603.11;;;0.64;72.18
76551;BME280;65393;53.160;18.170;2023-03-01T08:21:08;102599.59;;;0.74;72.32
76551;BME280;65393;53.160;18.170;2023-03-01T08:23:36;102599.03;;;0.84;72.64
76551;BME280;65393;53.160;18.170;2023-03-01T08:26:10;102596.73;;;0.94;72.54
76551;BME280;65393;53.160;18.170;2023-03-01T08:28:41;102596.17;;;1.05;72.04
76551;BME280;65393;53.160;18.170;2023-03-01T08:31:20;102592.63;;;1.14;72.08
76551;BME280;65393;53.160;18.170;2023-03-01T08:33:50;102589.49;;;1.26;71.87
76551;BME280;65393;53.160;18.170;2023-03-01T08:36:29;102593.49;;;1.37;71.71
76551;BME280;65393;53.160;18.170;2023-03-01T08:38:57;102593.61;;;1.47;71.57
76551;BME280;65393;53.160;18.170;2023-03-01T08:41:24;102597.59;;;1.58;71.37
76551;BME280;65393;53.160;18.170;2023-03-01T08:43:51;102591.09;;;1.69;71.66
76551;BME280;65393;53.160;18.170;2023-03-01T08:46:19;102590.51;;;1.79;71.50
76551;BME280;65393;53.160;18.170;2023-03-01T08:48:46;102591.00;;;1.92;71.68
76551;BME280;65393;53.160;18.170;2023-03-01T08:51:17;102588.73;;;2.05;71.65
76551;BME280;65393;53.160;18.170;2023-03-01T08:53:44;102586.27;;;2.17;71.46
76551;BME280;65393;53.160;18.170;2023-03-01T08:56:11;102585.67;;;2.29;71.33
76551;BME280;65393;53.160;18.170;2023-03-01T08:58:38;102586.30;;;2.39;71.86
76551;BME280;65393;53.160;18.170;2023-03-01T09:01:10;102586.29;;;2.53;72.14
76551;BME280;65393;53.160;18.170;2023-03-01T09:03:37;102581.19;;;2.66;72.15
76551;BME280;65393;53.160;18.170;2023-03-01T09:06:06;102582.73;;;2.79;71.83
76551;BME280;65393;53.160;18.170;2023-03-01T09:08:35;102582.46;;;2.90;71.76
76551;BME280;65393;53.160;18.170;2023-03-01T09:11:03;102574.99;;;3.02;71.69
76551;BME280;65393;53.160;18.170;2023-03-01T09:13:31;102576.16;;;3.15;71.96
76551;BME280;65393;53.160;18.170;2023-03-01T09:16:00;102580.86;;;3.29;71.84
76551;BME280;65393;53.160;18.170;2023-03-01T09:18:28;102576.23;;;3.43;71.72
76551;BME280;65393;53.160;18.170;2023-03-01T09:23:29;102578.50;;;3.59;71.60
76551;BME280;65393;53.160;18.170;2023-03-01T09:25:55;102579.04;;;3.68;71.73
76551;BME280;65393;53.160;18.170;2023-03-01T09:28:22;102577.99;;;3.78;71.88
76551;BME280;65393;53.160;18.170;2023-03-01T09:30:49;102576.77;;;3.87;71.44
76551;BME280;65393;53.160;18.170;2023-03-01T09:33:16;102572.00;;;3.95;71.68
76551;BME280;65393;53.160;18.170;2023-03-01T09:35:43;102569.14;;;4.02;71.41
76551;BME280;65393;53.160;18.170;2023-03-01T09:38:13;102564.48;;;4.06;71.23
76551;BME280;65393;53.160;18.170;2023-03-01T09:40:44;102561.52;;;4.08;70.79
76551;BME280;65393;53.160;18.170;2023-03-01T09:43:21;102559.46;;;4.11;70.57
76551;BME280;65393;53.160;18.170;2023-03-01T09:45:52;102553.92;;;4.15;70.64
76551;BME280;65393;53.160;18.170;2023-03-01T09:48:24;102550.12;;;4.20;70.82
76551;BME280;65393;53.160;18.170;2023-03-01T09:50:53;102557.02;;;4.22;70.68
76551;BME280;65393;53.160;18.170;2023-03-01T09:53:23;102555.34;;;4.27;70.45
76551;BME280;65393;53.160;18.170;2023-03-01T09:56:02;102554.71;;;4.31;70.58
76551;BME280;65393;53.160;18.170;2023-03-01T09:58:39;102553.77;;;4.37;71.08
76551;BME280;65393;53.160;18.170;2023-03-01T10:06:54;102551.14;;;4.60;70.38
76551;BME280;65393;53.160;18.170;2023-03-01T10:09:23;102540.35;;;4.66;70.15
76551;BME280;65393;53.160;18.170;2023-03-01T10:11:52;102541.09;;;4.70;69.49
76551;BME280;65393;53.160;18.170;2023-03-01T10:19:46;102522.29;;;4.95;69.29
76551;BME280;65393;53.160;18.170;2023-03-01T10:22:18;102517.49;;;5.05;69.08
76551;BME280;65393;53.160;18.170;2023-03-01T10:24:48;102512.83;;;5.12;68.52
76551;BME280;65393;53.160;18.170;2023-03-01T10:30:21;102494.98;;;5.21;69.03
76551;BME280;65393;53.160;18.170;2023-03-01T10:32:51;102495.77;;;5.26;68.28
76551;BME280;65393;53.160;18.170;2023-03-01T10:35:22;102497.07;;;5.34;68.60
76551;BME280;65393;53.160;18.170;2023-03-01T10:38:10;102492.06;;;5.42;68.70
76551;BME280;65393;53.160;18.170;2023-03-01T10:43:16;102492.59;;;5.58;67.36
76551;BME280;65393;53.160;18.170;2023-03-01T10:45:44;102486.80;;;5.61;66.77
76551;BME280;65393;53.160;18.170;2023-03-01T10:48:19;102482.11;;;5.66;66.99
76551;BME280;65393;53.160;18.170;2023-03-01T10:53:33;102470.19;;;5.72;67.62
76551;BME280;65393;53.160;18.170;2023-03-01T10:58:30;102467.66;;;5.85;66.72
76551;BME280;65393;53.160;18.170;2023-03-01T11:01:45;102471.45;;;5.90;66.36
76551;BME280;65393;53.160;18.170;2023-03-01T11:06:36;102465.88;;;5.99;66.71
76551;BME280;65393;53.160;18.170;2023-03-01T11:09:20;102457.86;;;6.07;65.81
76551;BME280;65393;53.160;18.170;2023-03-01T11:11:52;102454.04;;;6.15;65.40
76551;BME280;65393;53.160;18.170;2023-03-01T11:14:27;102453.89;;;6.18;65.37
76551;BME280;65393;53.160;18.170;2023-03-01T11:17:25;102454.65;;;6.26;65.27
76551;BME280;65393;53.160;18.170;2023-03-01T11:22:28;102456.81;;;6.34;63.60
76551;BME280;65393;53.160;18.170;2023-03-01T11:24:56;102457.90;;;6.38;63.83
76551;BME280;65393;53.160;18.170;2023-03-01T11:27:28;102450.17;;;6.42;62.55
76551;BME280;65393;53.160;18.170;2023-03-01T11:32:41;102446.36;;;6.51;63.12
76551;BME280;65393;53.160;18.170;2023-03-01T11:35:19;102442.84;;;6.54;62.89
76551;BME280;65393;53.160;18.170;2023-03-01T11:37:55;102437.59;;;6.61;62.29
76551;BME280;65393;53.160;18.170;2023-03-01T11:40:31;102434.60;;;6.64;61.32
76551;BME280;65393;53.160;18.170;2023-03-01T11:43:23;102432.48;;;6.62;61.07
76551;BME280;65393;53.160;18.170;2023-03-01T11:52:12;102433.17;;;6.62;61.19
76551;BME280;65393;53.160;18.170;2023-03-01T12:00:13;102437.29;;;6.69;60.60
76551;BME280;65393;53.160;18.170;2023-03-01T12:06:10;102441.35;;;6.73;61.97
76551;BME280;65393;53.160;18.170;2023-03-01T12:08:58;102442.80;;;6.78;61.70
76551;BME280;65393;53.160;18.170;2023-03-01T12:19:58;102436.64;;;6.82;61.62
76551;BME280;65393;53.160;18.170;2023-03-01T12:22:32;102438.26;;;6.88;61.97
76551;BME280;65393;53.160;18.170;2023-03-01T12:25:15;102434.72;;;6.88;61.98
76551;BME280;65393;53.160;18.170;2023-03-01T12:27:59;102440.03;;;6.90;62.02
76551;BME280;65393;53.160;18.170;2023-03-01T12:36:24;102436.15;;;6.91;62.01
76551;BME280;65393;53.160;18.170;2023-03-01T12:39:22;102433.15;;;6.92;61.90
76551;BME280;65393;53.160;18.170;2023-03-01T12:44:53;102422.39;;;6.95;61.98
76551;BME280;65393;53.160;18.170;2023-03-01T12:52:47;102413.06;;;7.02;62.08
76551;BME280;65393;53.160;18.170;2023-03-01T12:55:29;102405.83;;;7.05;62.34
76551;BME280;65393;53.160;18.170;2023-03-01T13:00:48;102404.98;;;7.10;61.38
76551;BME280;65393;53.160;18.170;2023-03-01T13:03:53;102402.84;;;7.06;61.54
76551;BME280;65393;53.160;18.170;2023-03-01T13:11:36;102395.63;;;7.17;62.14
76551;BME280;65393;53.160;18.170;2023-03-01T13:16:47;102396.36;;;7.27;62.00
76551;BME280;65393;53.160;18.170;2023-03-01T13:21:45;102392.48;;;7.35;61.46
76551;BME280;65393;53.160;18.170;2023-03-01T13:24:41;102392.66;;;7.36;61.58
76551;BME280;65393;53.160;18.170;2023-03-01T13:29:49;102397.27;;;7.45;61.77
76551;BME280;65393;53.160;18.170;2023-03-01T13:32:28;102393.56;;;7.47;61.60
76551;BME280;65393;53.160;18.170;2023-03-01T13:35:00;102391.98;;;7.52;61.15
76551;BME280;65393;53.160;18.170;2023-03-01T13:37:30;102385.09;;;7.56;61.29
76551;BME280;65393;53.160;18.170;2023-03-01T13:40:00;102381.56;;;7.58;61.06
76551;BME280;65393;53.160;18.170;2023-03-01T13:42:39;102381.40;;;7.62;60.68
76551;BME280;65393;53.160;18.170;2023-03-01T13:47:44;102376.27;;;7.65;60.78
76551;BME280;65393;53.160;18.170;2023-03-01T13:50:23;102372.02;;;7.67;60.66
76551;BME280;65393;53.160;18.170;2023-03-01T13:52:57;102371.15;;;7.71;60.22
76551;BME280;65393;53.160;18.170;2023-03-01T13:55:37;102368.48;;;7.67;59.56
76551;BME280;65393;53.160;18.170;2023-03-01T13:58:16;102363.02;;;7.62;59.59
76551;BME280;65393;53.160;18.170;2023-03-01T14:00:46;102359.83;;;7.65;60.19
76551;BME280;65393;53.160;18.170;2023-03-01T14:03:19;102360.19;;;7.69;60.19
76551;BME280;65393;53.160;18.170;2023-03-01T14:06:06;102356.84;;;7.69;59.22
76551;BME280;65393;53.160;18.170;2023-03-01T14:08:35;102356.30;;;7.70;59.33
76551;BME280;65393;53.160;18.170;2023-03-01T14:14:18;102359.65;;;7.73;59.76
76551;BME280;65393;53.160;18.170;2023-03-01T14:19:34;102352.41;;;7.75;59.71
76551;BME280;65393;53.160;18.170;2023-03-01T14:22:14;102351.17;;;7.76;59.74
76551;BME280;65393;53.160;18.170;2023-03-01T14:24:54;102347.63;;;7.75;59.89
76551;BME280;65393;53.160;18.170;2023-03-01T14:27:25;102345.16;;;7.77;60.15
76551;BME280;65393;53.160;18.170;2023-03-01T14:30:30;102346.05;;;7.79;60.12
76551;BME280;65393;53.160;18.170;2023-03-01T14:33:00;102343.23;;;7.81;60.01
76551;BME280;65393;53.160;18.170;2023-03-01T14:35:30;102346.41;;;7.81;59.93
76551;BME280;65393;53.160;18.170;2023-03-01T14:37:58;102339.33;;;7.81;59.62
76551;BME280;65393;53.160;18.170;2023-03-01T14:40:26;102341.45;;;7.81;60.06
76551;BME280;65393;53.160;18.170;2023-03-01T14:42:56;102338.27;;;7.80;60.26
76551;BME280;65393;53.160;18.170;2023-03-01T14:45:25;102338.27;;;7.80;60.47
76551;BME280;65393;53.160;18.170;2023-03-01T14:47:54;102337.56;;;7.80;60.65
76551;BME280;65393;53.160;18.170;2023-03-01T14:50:28;102333.32;;;7.77;60.15